createdAt,value
2022-12-09T00:00:10.710Z,12.50
2022-12-09T00:02:40.805Z,17.73
2022-12-09T00:05:10.756Z,16.40
2022-12-09T00:07:39.405Z,14.88
2022-12-09T00:10:09.412Z,17.88
2022-12-09T00:12:38.426Z,17.45
2022-12-09T00:15:07.786Z,14.00
2022-12-09T00:17:36.809Z,17.35
2022-12-09T00:20:09.023Z,18.13
2022-12-09T00:22:37.909Z,29.05
2022-12-09T00:25:07.267Z,32.58
2022-12-09T00:27:35.871Z,31.25
2022-12-09T00:30:05.766Z,40.38
2022-12-09T00:32:34.871Z,49.20
2022-12-09T00:35:04.434Z,33.78
2022-12-09T00:37:35.046Z,20.65
2022-12-09T00:40:04.307Z,19.48
2022-12-09T00:42:32.775Z,19.85
2022-12-09T00:45:01.925Z,34.53
2022-12-09T00:47:30.617Z,28.95
2022-12-09T00:49:59.439Z,18.02
2022-12-09T00:52:28.433Z,17.00
2022-12-09T00:54:58.193Z,14.45
2022-12-09T00:57:26.759Z,18.33
2022-12-09T00:59:54.968Z,26.55
2022-12-09T01:02:23.629Z,16.63
2022-12-09T01:04:53.236Z,15.93
2022-12-09T01:07:22.054Z,20.08
2022-12-09T01:09:50.818Z,17.80
2022-12-09T01:12:20.627Z,13.20
2022-12-09T01:14:49.141Z,21.60
2022-12-09T01:17:17.963Z,15.88
2022-12-09T01:19:46.651Z,19.85
2022-12-09T01:22:14.960Z,20.65
2022-12-09T01:24:43.216Z,19.92
2022-12-09T01:27:11.763Z,19.20
2022-12-09T01:29:41.333Z,20.60
2022-12-09T01:32:09.627Z,24.15
2022-12-09T01:34:38.284Z,15.90
2022-12-09T01:37:06.922Z,29.23
2022-12-09T01:39:35.615Z,14.95
2022-12-09T01:42:05.421Z,19.42
2022-12-09T01:44:35.756Z,18.95
2022-12-09T01:47:05.622Z,17.95
2022-12-09T01:49:43.206Z,18.77
2022-12-09T01:52:20.303Z,15.35
2022-12-09T01:54:52.248Z,18.23
2022-12-09T01:57:21.698Z,16.58
2022-12-09T01:59:52.773Z,19.73
2022-12-09T02:02:23.739Z,16.63
2022-12-09T02:04:52.683Z,15.38
2022-12-09T02:07:21.651Z,17.10
2022-12-09T02:09:53.538Z,16.13
2022-12-09T02:12:42.222Z,15.35
2022-12-09T02:15:19.155Z,19.05
2022-12-09T02:17:55.644Z,17.83
2022-12-09T02:20:30.598Z,18.38
2022-12-09T02:23:06.976Z,19.15
2022-12-09T02:25:44.594Z,16.45
2022-12-09T02:28:39.141Z,21.70
2022-12-09T02:31:25.705Z,15.70
2022-12-09T02:34:16.138Z,23.08
2022-12-09T02:36:59.020Z,19.48
2022-12-09T02:39:34.993Z,23.85
2022-12-09T02:42:07.789Z,18.67
2022-12-09T02:44:39.596Z,21.35
2022-12-09T02:47:14.598Z,13.43
2022-12-09T02:49:47.899Z,16.80
2022-12-09T02:52:18.373Z,16.50
2022-12-09T02:54:48.273Z,16.42
2022-12-09T02:57:25.398Z,18.10
2022-12-09T02:59:53.859Z,17.85
2022-12-09T03:02:29.477Z,19.30
2022-12-09T03:05:12.639Z,20.05
2022-12-09T03:07:47.932Z,15.40
2022-12-09T03:10:24.367Z,13.38
2022-12-09T03:13:03.866Z,18.98
2022-12-09T03:15:36.631Z,19.42
2022-12-09T03:18:11.819Z,16.48
2022-12-09T03:20:44.704Z,17.17
2022-12-09T03:23:17.452Z,18.08
2022-12-09T03:25:50.141Z,16.25
2022-12-09T03:28:22.934Z,13.38
2022-12-09T03:30:54.535Z,15.70
2022-12-09T03:33:25.480Z,13.63
2022-12-09T03:35:59.797Z,13.90
2022-12-09T03:38:34.363Z,19.38
2022-12-09T03:41:11.682Z,12.90
2022-12-09T03:43:48.203Z,16.10
2022-12-09T03:46:17.031Z,14.80
2022-12-09T03:48:45.974Z,15.00
2022-12-09T03:51:20.420Z,16.88
2022-12-09T03:56:24.248Z,9.90
2022-12-09T03:58:56.119Z,16.67
2022-12-09T04:01:27.349Z,18.88
2022-12-09T04:03:58.652Z,14.23
2022-12-09T04:06:29.156Z,22.30
2022-12-09T04:09:02.101Z,18.88
2022-12-09T04:11:31.703Z,12.02
2022-12-09T04:14:00.624Z,18.48
2022-12-09T04:16:29.523Z,13.38
2022-12-09T04:18:58.542Z,15.43
2022-12-09T04:21:28.625Z,13.05
2022-12-09T04:23:57.169Z,20.50
2022-12-09T04:26:25.791Z,20.38
2022-12-09T04:28:54.404Z,23.67
2022-12-09T04:31:22.949Z,16.10
2022-12-09T04:33:52.003Z,14.00
2022-12-09T04:36:21.883Z,12.82
2022-12-09T04:38:54.267Z,13.52
2022-12-09T04:41:22.856Z,11.23
2022-12-09T04:43:51.422Z,10.85
2022-12-09T04:46:20.434Z,12.13
2022-12-09T04:48:49.403Z,12.57
2022-12-09T04:51:18.311Z,11.30
2022-12-09T04:53:47.068Z,17.92
2022-12-09T04:56:19.773Z,18.75
2022-12-09T04:58:49.951Z,11.35
2022-12-09T05:01:30.070Z,11.32
2022-12-09T05:04:00.522Z,12.05
2022-12-09T05:06:29.677Z,8.10
2022-12-09T05:08:58.775Z,11.88
2022-12-09T05:11:29.074Z,9.93
2022-12-09T05:13:58.540Z,15.90
2022-12-09T05:16:27.319Z,11.38
2022-12-09T05:18:56.204Z,10.07
2022-12-09T05:21:25.285Z,10.38
2022-12-09T05:23:54.212Z,15.32
2022-12-09T05:26:24.437Z,17.75
2022-12-09T05:28:54.311Z,11.98
2022-12-09T05:31:25.303Z,19.70
2022-12-09T05:33:54.720Z,18.95
2022-12-09T05:36:27.739Z,17.48
2022-12-09T05:38:56.594Z,12.23
2022-12-09T05:41:26.064Z,17.90
2022-12-09T05:43:56.064Z,13.75
2022-12-09T05:46:24.983Z,15.40
2022-12-09T05:48:54.118Z,19.33
2022-12-09T05:51:26.353Z,22.85
2022-12-09T05:53:56.740Z,23.25
2022-12-09T05:56:26.740Z,17.92
2022-12-09T05:58:57.316Z,12.38
2022-12-09T06:01:26.519Z,10.82
2022-12-09T06:03:56.734Z,17.38
2022-12-09T06:06:28.130Z,13.70
2022-12-09T06:08:59.672Z,18.90
2022-12-09T06:11:29.402Z,19.13
2022-12-09T06:13:59.687Z,15.32
2022-12-09T06:16:28.539Z,15.63
2022-12-09T06:18:57.933Z,13.18
2022-12-09T06:21:27.321Z,35.38
2022-12-09T06:23:56.212Z,47.50
2022-12-09T06:26:27.764Z,18.45
2022-12-09T06:28:57.540Z,15.98
2022-12-09T06:31:29.113Z,19.10
2022-12-09T06:33:59.629Z,21.55
2022-12-09T06:36:30.519Z,26.50
2022-12-09T06:39:09.717Z,32.72
2022-12-09T06:41:41.420Z,38.45
2022-12-09T06:44:11.894Z,26.13
2022-12-09T06:46:42.874Z,18.23
2022-12-09T06:49:11.832Z,20.92
2022-12-09T06:51:40.504Z,22.27
2022-12-09T06:54:09.726Z,18.60
2022-12-09T06:56:38.577Z,26.27
2022-12-09T06:59:11.386Z,18.95
2022-12-09T07:01:42.036Z,23.42
2022-12-09T07:04:15.039Z,21.77
2022-12-09T07:06:46.968Z,16.35
2022-12-09T07:09:18.060Z,16.75
2022-12-09T07:11:48.218Z,16.45
2022-12-09T07:14:18.338Z,15.10
2022-12-09T07:16:48.945Z,15.18
2022-12-09T07:19:20.654Z,17.10
2022-12-09T07:21:50.859Z,18.65
2022-12-09T07:24:20.586Z,18.35
2022-12-09T07:26:50.832Z,19.77
2022-12-09T07:29:20.097Z,22.63
2022-12-09T07:31:50.434Z,23.15
2022-12-09T07:34:19.490Z,24.20
2022-12-09T07:36:48.181Z,26.85
2022-12-09T07:39:19.318Z,32.53
2022-12-09T07:41:52.075Z,28.92
2022-12-09T07:44:21.087Z,23.67
2022-12-09T07:46:51.546Z,25.85
2022-12-09T07:49:20.250Z,24.55
2022-12-09T07:51:48.956Z,21.20
2022-12-09T07:54:20.545Z,19.83
2022-12-09T07:56:49.535Z,22.60
2022-12-09T07:59:18.485Z,32.95
2022-12-09T08:01:47.333Z,42.90
2022-12-09T08:04:17.238Z,55.13
2022-12-09T08:06:46.516Z,65.03
2022-12-09T08:09:15.906Z,52.08
2022-12-09T08:11:44.753Z,47.25
2022-12-09T08:14:14.277Z,46.40
2022-12-09T08:16:44.139Z,45.47
2022-12-09T08:19:13.985Z,39.20
2022-12-09T08:21:47.281Z,32.20
2022-12-09T08:24:18.460Z,32.35
2022-12-09T08:26:47.322Z,33.20
2022-12-09T08:29:16.337Z,22.88
2022-12-09T08:31:45.790Z,28.92
2022-12-09T08:34:16.023Z,23.75
2022-12-09T08:36:45.937Z,30.63
2022-12-09T08:39:15.824Z,21.42
2022-12-09T08:41:45.652Z,29.80
2022-12-09T08:44:16.511Z,22.27
2022-12-09T08:46:50.985Z,20.75
2022-12-09T08:49:22.255Z,17.58
2022-12-09T08:51:54.500Z,19.63
2022-12-09T08:54:23.247Z,23.60
2022-12-09T08:56:55.609Z,25.00
2022-12-09T08:59:25.474Z,33.13
2022-12-09T09:01:54.548Z,30.30
2022-12-09T09:04:24.193Z,33.25
2022-12-09T09:06:54.903Z,26.75
2022-12-09T09:09:23.751Z,27.13
2022-12-09T09:11:53.261Z,25.30
2022-12-09T09:14:22.189Z,33.63
2022-12-09T09:16:50.866Z,26.52
2022-12-09T09:19:23.419Z,28.50
2022-12-09T09:21:54.000Z,25.92
2022-12-09T09:24:25.380Z,28.00
2022-12-09T09:26:54.771Z,21.75
2022-12-09T09:29:24.831Z,30.05
2022-12-09T09:31:55.333Z,30.58
2022-12-09T09:34:25.396Z,24.83
2022-12-09T09:36:57.631Z,26.48
2022-12-09T09:39:26.615Z,19.42
2022-12-09T09:42:04.410Z,23.60
2022-12-09T09:44:41.132Z,27.17
2022-12-09T09:47:18.258Z,23.03
2022-12-09T09:49:54.642Z,26.17
2022-12-09T09:52:27.645Z,31.05
2022-12-09T09:54:57.260Z,20.23
2022-12-09T09:57:33.955Z,22.98
2022-12-09T10:00:19.281Z,26.48
2022-12-09T10:03:00.265Z,23.65
2022-12-09T10:05:33.620Z,23.00
2022-12-09T10:08:34.781Z,23.67
2022-12-09T10:11:18.188Z,26.98
2022-12-09T10:13:55.491Z,26.90
2022-12-09T10:16:30.908Z,25.00
2022-12-09T10:19:09.212Z,29.70
2022-12-09T10:21:44.302Z,28.50
2022-12-09T10:24:24.211Z,22.92
2022-12-09T10:27:06.887Z,30.45
2022-12-09T10:29:52.870Z,25.80
2022-12-09T10:32:25.729Z,23.95
2022-12-09T10:34:55.166Z,28.23
2022-12-09T10:37:31.503Z,31.73
2022-12-09T10:40:30.980Z,24.35
2022-12-09T10:43:17.840Z,29.48
2022-12-09T10:48:44.599Z,24.30
2022-12-09T10:51:17.641Z,25.15
2022-12-09T10:53:49.688Z,25.20
2022-12-09T10:56:24.380Z,19.55
2022-12-09T10:59:12.117Z,28.00
2022-12-09T11:01:51.756Z,22.90
2022-12-09T11:04:28.595Z,18.52
2022-12-09T11:07:02.148Z,18.52
2022-12-09T11:09:33.498Z,16.60
2022-12-09T11:12:07.796Z,18.63
2022-12-09T11:14:39.862Z,18.52
2022-12-09T11:17:18.671Z,15.98
2022-12-09T11:19:51.813Z,15.40
2022-12-09T11:22:36.553Z,16.60
2022-12-09T11:25:27.224Z,21.08
2022-12-09T11:27:59.829Z,19.27
2022-12-09T11:30:32.637Z,17.92
2022-12-09T11:33:20.503Z,19.42
2022-12-09T11:36:01.873Z,17.70
2022-12-09T11:38:37.744Z,16.30
2022-12-09T11:41:37.332Z,15.90
2022-12-09T11:44:25.838Z,15.80
2022-12-09T11:47:01.550Z,13.02
2022-12-09T11:49:33.052Z,18.67
2022-12-09T11:52:07.488Z,16.85
2022-12-09T11:54:48.471Z,15.18
2022-12-09T11:57:28.303Z,15.50
2022-12-09T12:00:06.905Z,13.68
2022-12-09T12:02:41.964Z,15.18
2022-12-09T12:05:22.711Z,14.82
2022-12-09T12:08:02.241Z,16.02
2022-12-09T12:10:35.896Z,13.25
2022-12-09T12:13:16.266Z,12.30
2022-12-09T12:15:53.156Z,13.20
2022-12-09T12:18:23.706Z,13.35
2022-12-09T12:21:20.632Z,13.60
2022-12-09T12:24:44.781Z,12.25
2022-12-09T12:27:32.347Z,17.05
2022-12-09T12:30:09.405Z,16.33
2022-12-09T12:36:04.445Z,18.35
2022-12-09T12:38:51.522Z,14.95
2022-12-09T12:41:36.244Z,20.45
2022-12-09T12:44:52.978Z,14.95
2022-12-09T12:47:29.503Z,17.65
2022-12-09T12:50:25.131Z,25.60
2022-12-09T12:53:01.803Z,16.77
2022-12-09T12:55:48.866Z,13.82
2022-12-09T12:58:34.623Z,19.08
2022-12-09T13:01:13.769Z,17.95
2022-12-09T13:03:54.337Z,20.65
2022-12-09T13:06:36.466Z,16.75
2022-12-09T13:09:12.641Z,16.85
2022-12-09T13:11:56.263Z,17.08
2022-12-09T13:14:40.959Z,16.58
2022-12-09T13:17:14.900Z,14.65
2022-12-09T13:19:48.299Z,16.15
2022-12-09T13:22:23.027Z,18.13
2022-12-09T13:25:01.753Z,14.18
2022-12-09T13:27:38.457Z,20.48
2022-12-09T13:30:13.132Z,16.88
2022-12-09T13:35:43.748Z,16.63
2022-12-09T13:38:33.597Z,12.18
2022-12-09T13:41:22.203Z,12.05
2022-12-09T13:43:51.896Z,16.00
2022-12-09T13:46:23.645Z,17.55
2022-12-09T13:48:52.804Z,14.23
2022-12-09T13:51:22.016Z,13.38
2022-12-09T13:54:02.245Z,13.10
2022-12-09T13:56:34.098Z,15.90
2022-12-09T13:59:42.658Z,15.90
2022-12-09T14:02:24.925Z,15.85
2022-12-09T14:05:06.586Z,18.60
2022-12-09T14:07:41.759Z,18.23
2022-12-09T14:10:39.890Z,21.27
2022-12-09T14:13:29.710Z,19.95
2022-12-09T14:16:32.930Z,16.23
2022-12-09T14:19:52.665Z,18.52
2022-12-09T14:22:40.092Z,18.83
2022-12-09T14:25:54.767Z,17.10
2022-12-09T14:29:01.006Z,16.55
2022-12-09T14:32:01.671Z,23.15
2022-12-09T14:34:43.853Z,16.60
2022-12-09T14:37:41.529Z,17.80
2022-12-09T14:40:51.880Z,15.73
2022-12-09T14:44:04.098Z,18.65
2022-12-09T14:46:35.066Z,23.83
2022-12-09T14:49:13.264Z,19.58
2022-12-09T14:51:47.914Z,17.58
2022-12-09T14:56:52.216Z,16.63
2022-12-09T14:59:23.164Z,17.77
2022-12-09T15:01:57.887Z,19.33
2022-12-09T15:04:32.697Z,20.60
2022-12-09T15:07:13.773Z,16.55
2022-12-09T15:09:58.867Z,20.88
2022-12-09T15:12:32.246Z,18.63
2022-12-09T15:15:07.695Z,22.10
2022-12-09T15:17:43.191Z,20.40
2022-12-09T15:20:28.363Z,22.75
2022-12-09T15:23:00.140Z,18.33
2022-12-09T15:25:30.094Z,16.40
2022-12-09T15:28:02.057Z,17.52
2022-12-09T15:30:34.481Z,19.73
2022-12-09T15:33:03.737Z,22.27
2022-12-09T15:35:34.421Z,19.05
2022-12-09T15:38:07.387Z,20.25
2022-12-09T15:40:58.975Z,15.18
2022-12-09T15:43:27.575Z,16.15
2022-12-09T15:45:56.269Z,15.45
2022-12-09T15:48:31.181Z,27.58
2022-12-09T15:51:02.877Z,16.73
2022-12-09T15:53:37.809Z,24.52
2022-12-09T15:56:14.085Z,28.10
2022-12-09T15:58:48.460Z,23.20
2022-12-09T16:01:22.584Z,25.85
2022-12-09T16:03:53.827Z,25.95
2022-12-09T16:06:28.094Z,21.33
2022-12-09T16:08:56.683Z,20.60
2022-12-09T16:11:40.699Z,21.83
2022-12-09T16:14:10.712Z,15.17
2022-12-09T16:16:47.366Z,19.17
2022-12-09T16:19:43.490Z,16.35
2022-12-09T16:22:22.524Z,17.85
2022-12-09T16:25:14.101Z,16.85
2022-12-09T16:27:49.915Z,19.58
2022-12-09T16:30:21.986Z,23.35
2022-12-09T16:32:53.394Z,18.80
2022-12-09T16:35:25.270Z,19.10
2022-12-09T16:38:20.803Z,17.35
2022-12-09T16:44:03.920Z,16.30
2022-12-09T16:46:42.607Z,23.25
2022-12-09T16:49:11.126Z,19.50
2022-12-09T16:51:40.739Z,22.45
2022-12-09T16:54:20.794Z,19.67
2022-12-09T16:56:51.243Z,23.55
2022-12-09T16:59:20.817Z,22.70
2022-12-09T17:01:49.172Z,23.15
2022-12-09T17:04:22.703Z,24.13
2022-12-09T17:06:50.965Z,24.73
2022-12-09T17:09:19.751Z,24.83
2022-12-09T17:11:49.216Z,24.80
2022-12-09T17:14:18.239Z,31.10
2022-12-09T17:16:47.866Z,24.23
2022-12-09T17:19:16.155Z,27.45
2022-12-09T17:21:44.383Z,26.00
2022-12-09T17:24:13.289Z,22.83
2022-12-09T17:26:41.830Z,20.27
2022-12-09T17:29:10.259Z,20.88
2022-12-09T17:31:38.480Z,19.05
2022-12-09T17:34:08.416Z,20.50
2022-12-09T17:36:36.907Z,15.60
2022-12-09T17:39:06.070Z,20.85
2022-12-09T17:41:34.814Z,20.50
2022-12-09T17:44:03.278Z,21.25
2022-12-09T17:46:31.984Z,22.00
2022-12-09T17:49:01.631Z,26.08
2022-12-09T17:51:36.025Z,39.35
2022-12-09T17:54:05.624Z,24.70
2022-12-09T17:56:34.391Z,26.67
2022-12-09T17:59:08.514Z,21.83
2022-12-09T18:01:38.003Z,23.13
2022-12-09T18:04:10.347Z,32.85
2022-12-09T18:06:43.124Z,27.25
2022-12-09T18:09:14.820Z,25.35
2022-12-09T18:11:43.667Z,21.48
2022-12-09T18:14:12.075Z,18.67
2022-12-09T18:16:40.804Z,20.50
2022-12-09T18:19:12.766Z,18.95
2022-12-09T18:21:42.519Z,15.48
2022-12-09T18:24:11.423Z,18.98
2022-12-09T18:26:42.263Z,17.95
2022-12-09T18:29:11.240Z,23.23
2022-12-09T18:31:40.684Z,19.58
2022-12-09T18:34:09.455Z,22.15
2022-12-09T18:36:38.175Z,21.52
2022-12-09T18:39:08.617Z,22.35
2022-12-09T18:41:37.616Z,21.08
2022-12-09T18:44:07.844Z,17.67
2022-12-09T18:46:39.072Z,23.92
2022-12-09T18:49:10.002Z,19.10
2022-12-09T18:51:39.693Z,16.98
2022-12-09T18:54:10.357Z,21.10
2022-12-09T18:56:38.852Z,19.50
2022-12-09T18:59:08.675Z,19.38
2022-12-09T19:01:40.952Z,25.48
2022-12-09T19:04:14.252Z,24.33
2022-12-09T19:06:44.722Z,16.02
2022-12-09T19:09:17.202Z,27.48
2022-12-09T19:11:47.932Z,25.90
2022-12-09T19:14:18.371Z,22.98
2022-12-09T19:16:47.557Z,19.15
2022-12-09T19:19:18.726Z,24.65
2022-12-09T19:21:47.647Z,15.95
2022-12-09T19:24:21.540Z,19.27
2022-12-09T19:26:51.195Z,17.05
2022-12-09T19:29:20.105Z,20.50
2022-12-09T19:31:50.711Z,19.20
2022-12-09T19:34:21.507Z,18.63
2022-12-09T19:36:51.974Z,20.02
2022-12-09T19:39:25.262Z,22.77
2022-12-09T19:41:53.915Z,22.65
2022-12-09T19:44:44.243Z,31.13
2022-12-09T19:47:11.011Z,35.10
2022-12-09T19:49:41.287Z,43.58
2022-12-09T19:52:09.838Z,36.03
2022-12-09T19:54:39.523Z,38.90
2022-12-09T19:57:08.082Z,38.92
2022-12-09T19:59:37.581Z,26.30
2022-12-09T20:02:07.853Z,32.03
2022-12-09T20:04:51.733Z,30.08
2022-12-09T20:07:20.829Z,21.45
2022-12-09T20:09:50.707Z,23.90
2022-12-09T20:12:19.394Z,24.38
2022-12-09T20:14:47.874Z,18.80
2022-12-09T20:17:17.303Z,17.15
2022-12-09T20:19:45.878Z,16.98
2022-12-09T20:22:14.405Z,23.45
2022-12-09T20:24:44.066Z,24.25
2022-12-09T20:27:13.704Z,25.23
2022-12-09T20:29:42.235Z,25.98
2022-12-09T20:32:10.917Z,18.15
2022-12-09T20:34:39.775Z,18.77
2022-12-09T20:37:08.285Z,19.08
2022-12-09T20:39:36.956Z,21.13
2022-12-09T20:42:05.500Z,20.48
2022-12-09T20:44:35.116Z,19.17
2022-12-09T20:47:03.691Z,12.90
2022-12-09T20:49:32.221Z,26.05
2022-12-09T20:52:00.929Z,20.60
2022-12-09T20:54:29.242Z,24.73
2022-12-09T20:56:57.747Z,22.17
2022-12-09T20:59:26.280Z,22.65
2022-12-09T21:01:55.909Z,25.73
2022-12-09T21:04:24.493Z,25.10
2022-12-09T21:06:53.229Z,28.30
2022-12-09T21:09:26.968Z,23.77
2022-12-09T21:11:56.975Z,18.70
2022-12-09T21:14:31.123Z,19.45
2022-12-09T21:17:04.275Z,26.73
2022-12-09T21:19:34.177Z,30.17
2022-12-09T21:22:02.403Z,20.90
2022-12-09T21:24:30.898Z,21.67
2022-12-09T21:27:00.909Z,25.52
2022-12-09T21:29:32.280Z,28.33
2022-12-09T21:32:02.951Z,20.27
2022-12-09T21:34:31.707Z,27.52
2022-12-09T21:37:00.323Z,25.60
2022-12-09T21:39:29.189Z,26.33
2022-12-09T21:41:57.700Z,28.55
2022-12-09T21:44:27.011Z,28.75
2022-12-09T21:46:55.629Z,25.92
2022-12-09T21:49:25.543Z,30.38
2022-12-09T21:51:55.236Z,20.45
2022-12-09T21:54:23.737Z,23.42
2022-12-09T21:56:52.294Z,32.03
2022-12-09T21:59:20.714Z,26.50
2022-12-09T22:01:49.027Z,23.48
2022-12-09T22:04:18.675Z,21.88
2022-12-09T22:06:51.243Z,25.90
2022-12-09T22:09:20.974Z,27.13
2022-12-09T22:11:49.622Z,29.35
2022-12-09T22:14:18.437Z,26.52
2022-12-09T22:16:47.284Z,27.55
2022-12-09T22:19:19.694Z,24.67
2022-12-09T22:21:50.379Z,29.67
2022-12-09T22:24:19.171Z,27.98
2022-12-09T22:26:47.790Z,26.42
2022-12-09T22:29:18.235Z,23.10
2022-12-09T22:31:47.589Z,24.17
2022-12-09T22:34:18.645Z,29.17
2022-12-09T22:36:49.441Z,36.35
2022-12-09T22:39:21.493Z,27.50
2022-12-09T22:41:50.497Z,27.48
2022-12-09T22:44:20.923Z,31.55
2022-12-09T22:46:50.018Z,28.83
2022-12-09T22:49:18.844Z,29.40
2022-12-09T22:51:49.387Z,30.60
2022-12-09T22:54:18.156Z,36.17
2022-12-09T22:56:46.688Z,38.15
2022-12-09T22:59:16.242Z,33.95
2022-12-09T23:01:47.281Z,30.13
2022-12-09T23:04:18.743Z,31.33
2022-12-09T23:06:50.073Z,30.70
2022-12-09T23:09:21.920Z,24.67
2022-12-09T23:11:50.947Z,28.02
2022-12-09T23:14:19.799Z,29.25
2022-12-09T23:16:48.119Z,29.73
2022-12-09T23:19:16.625Z,27.83
2022-12-09T23:21:45.433Z,29.42
2022-12-09T23:24:24.469Z,31.65
2022-12-09T23:26:56.374Z,29.58
2022-12-09T23:29:25.016Z,23.70
2022-12-09T23:31:53.730Z,30.80
2022-12-09T23:34:22.406Z,24.40
2022-12-09T23:36:50.954Z,37.30
2022-12-09T23:39:20.941Z,25.70
2022-12-09T23:41:49.631Z,30.55
2022-12-09T23:44:20.055Z,27.60
2022-12-09T23:46:48.861Z,28.52
2022-12-09T23:49:17.878Z,30.23
2022-12-09T23:51:46.319Z,31.60
2022-12-09T23:54:17.355Z,28.83
2022-12-09T23:56:50.597Z,32.75
2022-12-09T23:59:21.604Z,26.00
